createdAt,value
2023-01-09T00:00:01.875Z,97351.63
2023-01-09T00:02:28.605Z,97315.53
2023-01-09T00:04:55.326Z,97343.09
2023-01-09T00:07:22.099Z,97324.97
2023-01-09T00:09:48.719Z,97343.81
2023-01-09T00:12:15.369Z,97339.78
2023-01-09T00:14:42.114Z,97340.91
2023-01-09T00:17:10.872Z,97344.25
2023-01-09T00:19:37.558Z,97340.84
2023-01-09T00:22:04.289Z,97343.75
2023-01-09T00:24:30.996Z,97331.75
2023-01-09T00:26:57.711Z,97315.88
2023-01-09T00:29:24.425Z,97343.88
2023-01-09T00:31:51.124Z,97317.16
2023-01-09T00:34:17.869Z,97341.88
2023-01-09T00:36:44.736Z,97354.34
2023-01-09T00:39:11.651Z,97339.31
2023-01-09T00:41:41.800Z,97362.88
2023-01-09T00:44:13.577Z,97316.94
2023-01-09T00:46:46.818Z,97318.81
2023-01-09T00:49:14.825Z,97365.84
2023-01-09T00:51:42.334Z,97355.69
2023-01-09T00:54:15.245Z,97385.56
2023-01-09T00:56:42.668Z,97388.16
2023-01-09T00:59:09.639Z,97379.34
2023-01-09T01:01:36.562Z,97380.38
2023-01-09T01:04:23.274Z,97371.78
2023-01-09T01:07:08.386Z,97378.50
2023-01-09T01:09:35.241Z,97394.56
2023-01-09T01:12:07.278Z,97377.63
2023-01-09T01:14:38.705Z,97412.38
2023-01-09T01:17:06.823Z,97403.06
2023-01-09T01:19:35.188Z,97387.81
2023-01-09T01:22:02.298Z,97421.91
2023-01-09T01:24:29.303Z,97408.72
2023-01-09T01:26:56.168Z,97420.56
2023-01-09T01:29:22.872Z,97408.69
2023-01-09T01:31:49.517Z,97417.50
2023-01-09T01:34:16.252Z,97372.84
2023-01-09T01:36:43.131Z,97417.63
2023-01-09T01:39:10.070Z,97425.75
2023-01-09T01:41:37.955Z,97421.97
2023-01-09T01:44:07.453Z,97420.69
2023-01-09T01:46:34.638Z,97430.75
2023-01-09T01:49:07.965Z,97443.56
2023-01-09T01:51:40.388Z,97433.41
2023-01-09T01:54:11.087Z,97445.84
2023-01-09T01:56:42.712Z,97452.09
2023-01-09T01:59:27.981Z,97387.63
2023-01-09T02:01:58.322Z,97437.78
2023-01-09T02:04:26.945Z,97454.06
2023-01-09T02:06:55.808Z,97467.09
2023-01-09T02:09:25.356Z,97459.09
2023-01-09T02:11:56.542Z,97468.81
2023-01-09T02:14:26.947Z,97457.28
2023-01-09T02:17:02.840Z,97466.69
2023-01-09T02:19:46.589Z,97474.59
2023-01-09T02:22:19.785Z,97467.53
2023-01-09T02:24:58.601Z,97480.63
2023-01-09T02:27:57.402Z,97480.50
2023-01-09T02:30:33.165Z,97490.94
2023-01-09T02:33:05.932Z,97496.13
2023-01-09T02:36:00.482Z,97496.38
2023-01-09T02:38:41.028Z,97490.03
2023-01-09T02:41:45.960Z,97512.13
2023-01-09T02:44:17.122Z,97469.00
2023-01-09T02:46:43.964Z,97501.59
2023-01-09T02:49:11.071Z,97518.50
2023-01-09T02:51:52.751Z,97517.94
2023-01-09T02:54:34.862Z,97518.50
2023-01-09T02:57:21.184Z,97499.84
2023-01-09T02:59:56.709Z,97548.00
2023-01-09T03:02:35.622Z,97546.31
2023-01-09T03:05:21.957Z,97542.06
2023-01-09T03:07:58.972Z,97539.94
2023-01-09T03:10:35.792Z,97549.13
2023-01-09T03:13:03.734Z,97539.84
2023-01-09T03:15:34.797Z,97559.00
2023-01-09T03:18:04.918Z,97558.59
2023-01-09T03:20:32.415Z,97552.97
2023-01-09T03:23:01.365Z,97557.13
2023-01-09T03:25:29.637Z,97544.75
2023-01-09T03:28:01.831Z,97559.00
2023-01-09T03:30:30.863Z,97542.44
2023-01-09T03:32:57.829Z,97520.28
2023-01-09T03:35:25.865Z,97556.84
2023-01-09T03:37:52.794Z,97522.66
2023-01-09T03:40:20.505Z,97526.81
2023-01-09T03:42:47.911Z,97572.09
2023-01-09T03:45:14.788Z,97535.22
2023-01-09T03:47:41.480Z,97536.16
2023-01-09T03:50:08.639Z,97560.16
2023-01-09T03:52:36.209Z,97577.81
2023-01-09T03:55:03.066Z,97556.56
2023-01-09T03:57:29.754Z,97576.88
2023-01-09T03:59:56.510Z,97568.47
2023-01-09T04:02:23.192Z,97551.56
2023-01-09T04:04:49.927Z,97594.75
2023-01-09T04:07:16.678Z,97598.63
2023-01-09T04:09:43.374Z,97584.31
2023-01-09T04:12:10.074Z,97622.31
2023-01-09T04:14:36.784Z,97587.81
2023-01-09T04:17:03.467Z,97605.41
2023-01-09T04:19:30.140Z,97566.47
2023-01-09T04:21:56.868Z,97609.63
2023-01-09T04:24:23.511Z,97583.66
2023-01-09T04:26:50.240Z,97580.88
2023-01-09T04:29:16.960Z,97575.97
2023-01-09T04:31:43.667Z,97581.06
2023-01-09T04:34:10.404Z,97612.41
2023-01-09T04:36:37.125Z,97622.19
2023-01-09T04:39:03.908Z,97620.59
2023-01-09T04:41:49.215Z,97626.34
2023-01-09T04:44:21.741Z,97657.13
2023-01-09T04:46:48.931Z,97655.56
2023-01-09T04:49:16.247Z,97664.91
2023-01-09T04:51:43.103Z,97651.78
2023-01-09T04:54:10.082Z,97657.41
2023-01-09T04:56:37.201Z,97674.59
2023-01-09T04:59:05.152Z,97661.84
2023-01-09T05:01:32.385Z,97689.38
2023-01-09T05:03:59.728Z,97653.53
2023-01-09T05:06:26.766Z,97704.19
2023-01-09T05:08:53.543Z,97699.44
2023-01-09T05:11:20.257Z,97701.22
2023-01-09T05:13:46.936Z,97694.44
2023-01-09T05:16:13.958Z,97680.13
2023-01-09T05:18:40.795Z,97703.72
2023-01-09T05:21:07.676Z,97709.63
2023-01-09T05:23:34.553Z,97704.78
2023-01-09T05:26:01.333Z,97707.31
2023-01-09T05:28:28.030Z,97695.72
2023-01-09T05:30:54.748Z,97690.34
2023-01-09T05:33:21.629Z,97716.53
2023-01-09T05:35:48.330Z,97679.25
2023-01-09T05:38:15.373Z,97733.81
2023-01-09T05:40:42.171Z,97718.81
2023-01-09T05:43:08.982Z,97710.00
2023-01-09T05:45:36.136Z,97744.06
2023-01-09T05:48:02.939Z,97723.69
2023-01-09T05:50:29.689Z,97725.22
2023-01-09T05:52:56.395Z,97738.63
2023-01-09T05:55:23.252Z,97725.41
2023-01-09T05:57:49.944Z,97741.72
2023-01-09T06:00:17.251Z,97735.97
2023-01-09T06:02:44.082Z,97725.22
2023-01-09T06:05:10.851Z,97727.34
2023-01-09T06:07:40.618Z,97735.31
2023-01-09T06:10:12.385Z,97756.50
2023-01-09T06:12:39.223Z,97775.38
2023-01-09T06:15:08.749Z,97738.41
2023-01-09T06:17:35.737Z,97764.72
2023-01-09T06:20:02.628Z,97798.03
2023-01-09T06:22:29.385Z,97793.78
2023-01-09T06:24:56.166Z,97785.63
2023-01-09T06:27:22.957Z,97771.81
2023-01-09T06:29:49.700Z,97785.59
2023-01-09T06:32:16.707Z,97830.84
2023-01-09T06:34:43.684Z,97785.09
2023-01-09T06:37:10.868Z,97801.69
2023-01-09T06:39:37.602Z,97777.63
2023-01-09T06:42:04.756Z,97756.78
2023-01-09T06:44:33.127Z,97830.84
2023-01-09T06:46:59.831Z,97828.56
2023-01-09T06:49:26.661Z,97795.38
2023-01-09T06:51:53.484Z,97840.66
2023-01-09T06:54:21.337Z,97795.16
2023-01-09T06:56:48.310Z,97858.22
2023-01-09T06:59:15.133Z,97820.47
2023-01-09T07:01:41.963Z,97860.25
2023-01-09T07:04:12.626Z,97833.25
2023-01-09T07:06:39.401Z,97834.31
2023-01-09T07:09:06.349Z,97836.59
2023-01-09T07:11:33.445Z,97825.44
2023-01-09T07:14:00.163Z,97831.38
2023-01-09T07:16:26.951Z,97871.22
2023-01-09T07:18:54.896Z,97862.31
2023-01-09T07:21:21.688Z,97867.66
2023-01-09T07:23:49.284Z,97839.38
2023-01-09T07:26:16.052Z,97809.38
2023-01-09T07:28:42.760Z,97826.06
2023-01-09T07:31:09.587Z,97841.66
2023-01-09T07:33:36.399Z,97846.47
2023-01-09T07:36:03.121Z,97848.41
2023-01-09T07:38:29.898Z,97879.13
2023-01-09T07:40:56.641Z,97869.91
2023-01-09T07:43:23.378Z,97902.28
2023-01-09T07:45:50.172Z,97865.81
2023-01-09T07:48:16.905Z,97886.25
2023-01-09T07:50:43.570Z,97897.75
2023-01-09T07:53:10.284Z,97890.38
2023-01-09T07:55:36.973Z,97934.66
2023-01-09T07:58:03.664Z,97885.97
2023-01-09T08:00:32.442Z,97916.97
2023-01-09T08:02:59.908Z,97940.34
2023-01-09T08:05:26.708Z,97918.13
2023-01-09T08:07:53.474Z,97903.66
2023-01-09T08:10:20.637Z,97924.00
2023-01-09T08:12:48.718Z,97968.34
2023-01-09T08:15:16.352Z,97925.81
2023-01-09T08:17:44.925Z,97967.34
2023-01-09T08:20:14.118Z,97946.19
2023-01-09T08:22:54.355Z,97999.59
2023-01-09T08:25:21.140Z,97937.59
2023-01-09T08:27:47.971Z,97968.53
2023-01-09T08:30:15.815Z,97989.69
2023-01-09T08:32:42.969Z,97976.16
2023-01-09T08:35:10.141Z,97975.66
2023-01-09T08:37:36.860Z,97976.75
2023-01-09T08:40:03.800Z,97985.75
2023-01-09T08:42:48.972Z,97968.81
2023-01-09T08:45:34.210Z,97969.06
2023-01-09T08:48:01.011Z,97995.78
2023-01-09T08:50:27.716Z,98022.72
2023-01-09T08:52:54.432Z,97984.28
2023-01-09T08:55:21.165Z,98021.78
2023-01-09T08:57:51.573Z,98026.38
2023-01-09T09:00:20.460Z,98055.97
2023-01-09T09:02:52.909Z,98022.44
2023-01-09T09:05:20.645Z,98024.97
2023-01-09T09:07:51.001Z,98066.06
2023-01-09T09:10:18.012Z,98034.56
2023-01-09T09:12:48.212Z,98066.72
2023-01-09T09:15:24.058Z,98001.50
2023-01-09T09:17:56.894Z,98047.16
2023-01-09T09:20:28.504Z,98074.00
2023-01-09T09:22:55.631Z,98100.09
2023-01-09T09:25:23.170Z,98099.38
2023-01-09T09:27:50.068Z,98045.69
2023-01-09T09:30:20.041Z,98043.56
2023-01-09T09:32:46.980Z,98078.06
2023-01-09T09:35:13.873Z,98075.00
2023-01-09T09:37:42.237Z,98119.66
2023-01-09T09:40:23.258Z,98081.97
2023-01-09T09:43:31.090Z,98110.31
2023-01-09T09:46:31.471Z,98121.88
2023-01-09T09:49:07.193Z,98105.06
2023-01-09T09:52:15.041Z,98120.53
2023-01-09T09:54:49.113Z,98133.50
2023-01-09T09:57:20.243Z,98133.41
2023-01-09T09:59:51.512Z,98179.75
2023-01-09T10:02:31.233Z,98165.66
2023-01-09T10:05:09.941Z,98189.75
2023-01-09T10:07:42.670Z,98124.06
2023-01-09T10:10:42.351Z,98126.16
2023-01-09T10:13:32.498Z,98165.53
2023-01-09T10:16:25.829Z,98146.06
2023-01-09T10:19:13.931Z,98200.25
2023-01-09T10:22:10.496Z,98204.72
2023-01-09T10:25:13.754Z,98190.28
2023-01-09T10:28:32.763Z,98172.47
2023-01-09T10:31:09.495Z,98219.53
2023-01-09T10:33:58.153Z,98184.84
2023-01-09T10:36:50.003Z,98237.19
2023-01-09T10:39:29.839Z,98234.72
2023-01-09T10:42:11.502Z,98210.94
2023-01-09T10:44:53.514Z,98216.09
2023-01-09T10:47:32.329Z,98237.75
2023-01-09T10:50:00.421Z,98241.28
2023-01-09T10:52:44.908Z,98199.78
2023-01-09T10:55:39.888Z,98252.44
2023-01-09T10:58:18.329Z,98223.81
2023-01-09T11:00:49.319Z,98195.59
2023-01-09T11:03:22.442Z,98253.03
2023-01-09T11:05:53.296Z,98254.75
2023-01-09T11:08:36.230Z,98238.84
2023-01-09T11:11:04.026Z,98258.72
2023-01-09T11:13:33.239Z,98252.88
2023-01-09T11:16:07.887Z,98262.38
2023-01-09T11:18:39.149Z,98279.44
2023-01-09T11:21:36.214Z,98272.38
2023-01-09T11:24:21.664Z,98273.25
2023-01-09T11:26:51.204Z,98226.97
2023-01-09T11:29:20.660Z,98258.41
2023-01-09T11:32:04.305Z,98254.72
2023-01-09T11:34:33.385Z,98251.56
2023-01-09T11:37:29.188Z,98288.06
2023-01-09T11:39:59.869Z,98284.16
2023-01-09T11:42:47.749Z,98235.88
2023-01-09T11:45:20.248Z,98207.88
2023-01-09T11:47:47.827Z,98244.63
2023-01-09T11:50:18.339Z,98244.59
2023-01-09T11:52:45.834Z,98232.84
2023-01-09T11:55:19.584Z,98289.81
2023-01-09T11:57:53.120Z,98282.75
2023-01-09T12:00:29.606Z,98254.72
2023-01-09T12:03:21.107Z,98308.03
2023-01-09T12:06:05.757Z,98321.81
2023-01-09T12:08:54.147Z,98320.84
2023-01-09T12:11:40.664Z,98323.28
2023-01-09T12:14:25.600Z,98314.72
2023-01-09T12:16:55.225Z,98338.28
2023-01-09T12:19:47.444Z,98343.81
2023-01-09T12:22:53.280Z,98308.19
2023-01-09T12:25:37.764Z,98256.44
2023-01-09T12:28:22.692Z,98347.78
2023-01-09T12:31:17.005Z,98343.56
2023-01-09T12:33:43.654Z,98343.00
2023-01-09T12:36:52.407Z,98348.94
2023-01-09T12:39:33.355Z,98359.50
2023-01-09T12:42:12.274Z,98358.94
2023-01-09T12:44:54.045Z,98339.28
2023-01-09T12:47:33.152Z,98370.38
2023-01-09T12:50:41.620Z,98368.78
2023-01-09T12:53:18.004Z,98382.03
2023-01-09T12:55:53.930Z,98357.56
2023-01-09T12:58:31.575Z,98348.94
2023-01-09T13:01:02.954Z,98384.31
2023-01-09T13:03:36.762Z,98350.38
2023-01-09T13:06:10.924Z,98348.63
2023-01-09T13:08:44.794Z,98394.59
2023-01-09T13:11:40.902Z,98358.25
2023-01-09T13:14:26.189Z,98345.25
2023-01-09T13:16:56.421Z,98368.78
2023-01-09T13:19:31.700Z,98393.31
2023-01-09T13:21:59.907Z,98405.97
2023-01-09T13:25:11.362Z,98412.84
2023-01-09T13:27:47.867Z,98358.50
2023-01-09T13:30:29.816Z,98414.19
2023-01-09T13:33:24.481Z,98351.50
2023-01-09T13:35:57.623Z,98427.19
2023-01-09T13:38:25.988Z,98426.47
2023-01-09T13:41:40.931Z,98419.16
2023-01-09T13:44:24.652Z,98429.81
2023-01-09T13:47:04.398Z,98420.94
2023-01-09T13:49:43.423Z,98447.38
2023-01-09T13:52:28.882Z,98442.81
2023-01-09T13:54:55.745Z,98449.88
2023-01-09T13:57:29.069Z,98453.22
2023-01-09T14:00:19.327Z,98432.38
2023-01-09T14:02:46.864Z,98466.28
2023-01-09T14:05:25.746Z,98469.56
2023-01-09T14:08:03.752Z,98446.16
2023-01-09T14:10:35.994Z,98478.81
2023-01-09T14:13:09.293Z,98467.84
2023-01-09T14:15:49.654Z,98473.97
2023-01-09T14:18:27.353Z,98474.75
2023-01-09T14:21:00.095Z,98479.59
2023-01-09T14:23:50.355Z,98480.94
2023-01-09T14:26:21.913Z,98490.78
2023-01-09T14:28:49.061Z,98491.75
2023-01-09T14:31:30.686Z,98487.13
2023-01-09T14:34:31.668Z,98496.47
2023-01-09T14:37:01.766Z,98469.53
2023-01-09T14:39:32.543Z,98462.56
2023-01-09T14:42:07.094Z,98473.63
2023-01-09T14:44:43.105Z,98493.22
2023-01-09T14:47:39.434Z,98496.31
2023-01-09T14:50:34.248Z,98510.81
2023-01-09T14:53:08.230Z,98524.41
2023-01-09T14:55:42.584Z,98528.69
2023-01-09T14:58:18.505Z,98532.81
2023-01-09T15:00:53.658Z,98535.97
2023-01-09T15:03:23.244Z,98469.00
2023-01-09T15:05:51.882Z,98505.38
2023-01-09T15:08:26.275Z,98530.03
2023-01-09T15:10:54.374Z,98539.16
2023-01-09T15:13:31.522Z,98530.19
2023-01-09T15:16:00.244Z,98541.31
2023-01-09T15:18:30.893Z,98537.13
2023-01-09T15:21:02.086Z,98538.69
2023-01-09T15:23:30.609Z,98555.63
2023-01-09T15:26:11.828Z,98550.25
2023-01-09T15:28:43.051Z,98550.72
2023-01-09T15:31:28.894Z,98569.66
2023-01-09T15:33:56.733Z,98554.19
2023-01-09T15:36:26.570Z,98574.56
2023-01-09T15:38:54.689Z,98596.84
2023-01-09T15:41:45.994Z,98606.56
2023-01-09T15:44:17.728Z,98617.09
2023-01-09T15:46:46.681Z,98607.72
2023-01-09T15:49:14.453Z,98621.22
2023-01-09T15:51:44.926Z,98635.41
2023-01-09T15:54:17.142Z,98617.72
2023-01-09T15:56:47.136Z,98636.84
2023-01-09T15:59:28.831Z,98643.53
2023-01-09T16:02:23.707Z,98650.53
2023-01-09T16:04:52.865Z,98647.53
2023-01-09T16:07:21.364Z,98660.19
2023-01-09T16:09:52.799Z,98660.19
2023-01-09T16:12:26.859Z,98668.53
2023-01-09T16:15:01.325Z,98675.66
2023-01-09T16:17:29.964Z,98615.00
2023-01-09T16:20:13.638Z,98684.94
2023-01-09T16:22:55.013Z,98679.78
2023-01-09T16:25:34.363Z,98695.31
2023-01-09T16:30:55.452Z,98642.66
2023-01-09T16:33:25.132Z,98713.63
2023-01-09T16:35:52.232Z,98695.38
2023-01-09T16:38:19.570Z,98675.72
2023-01-09T16:41:18.435Z,98728.19
2023-01-09T16:43:45.875Z,98677.31
2023-01-09T16:46:14.574Z,98727.41
2023-01-09T16:48:41.587Z,98747.84
2023-01-09T16:51:15.823Z,98719.25
2023-01-09T16:53:43.382Z,98746.22
2023-01-09T16:56:23.039Z,98744.63
2023-01-09T17:01:31.384Z,98757.47
2023-01-09T17:03:58.259Z,98770.63
2023-01-09T17:06:28.337Z,98772.34
2023-01-09T17:08:55.557Z,98760.03
2023-01-09T17:11:32.061Z,98777.59
2023-01-09T17:13:59.929Z,98764.06
2023-01-09T17:16:31.188Z,98769.75
2023-01-09T17:18:57.999Z,98753.78
2023-01-09T17:21:31.663Z,98755.88
2023-01-09T17:24:17.994Z,98785.16
2023-01-09T17:27:08.182Z,98805.88
2023-01-09T17:29:35.877Z,98798.44
2023-01-09T17:32:02.969Z,98831.84
2023-01-09T17:34:33.395Z,98795.38
2023-01-09T17:37:00.161Z,98852.19
2023-01-09T17:39:27.233Z,98848.63
2023-01-09T17:41:54.036Z,98837.56
2023-01-09T17:44:21.115Z,98838.34
2023-01-09T17:46:47.809Z,98833.56
2023-01-09T17:49:17.473Z,98863.50
2023-01-09T17:51:44.648Z,98858.66
2023-01-09T17:54:11.796Z,98881.66
2023-01-09T17:56:42.629Z,98897.56
2023-01-09T17:59:14.547Z,98899.38
2023-01-09T18:01:43.117Z,98907.22
2023-01-09T18:04:10.673Z,98899.56
2023-01-09T18:06:37.750Z,98901.69
2023-01-09T18:09:05.504Z,98852.00
2023-01-09T18:11:32.408Z,98864.75
2023-01-09T18:13:59.322Z,98908.56
2023-01-09T18:16:30.826Z,98906.22
2023-01-09T18:18:59.474Z,98915.22
2023-01-09T18:21:30.419Z,98907.66
2023-01-09T18:23:58.358Z,98922.88
2023-01-09T18:26:28.265Z,98919.91
2023-01-09T18:28:59.633Z,98920.19
2023-01-09T18:31:29.193Z,98896.41
2023-01-09T18:33:58.096Z,98958.41
2023-01-09T18:36:30.573Z,98961.25
2023-01-09T18:39:08.769Z,98975.31
2023-01-09T18:41:36.121Z,98951.03
2023-01-09T18:44:03.929Z,98989.66
2023-01-09T18:46:32.273Z,98961.13
2023-01-09T18:49:01.864Z,98949.88
2023-01-09T18:52:14.431Z,99002.25
2023-01-09T18:54:45.839Z,98991.44
2023-01-09T18:57:12.488Z,98993.81
2023-01-09T18:59:39.636Z,98968.22
2023-01-09T19:02:07.309Z,98987.84
2023-01-09T19:04:34.243Z,98993.41
2023-01-09T19:07:01.475Z,98997.69
2023-01-09T19:09:28.236Z,99012.34
2023-01-09T19:11:54.939Z,99008.00
2023-01-09T19:14:21.612Z,99058.50
2023-01-09T19:16:48.399Z,99062.09
2023-01-09T19:19:15.152Z,99038.81
2023-01-09T19:21:44.197Z,99029.22
2023-01-09T19:24:10.949Z,99049.56
2023-01-09T19:26:37.629Z,99007.41
2023-01-09T19:29:04.283Z,99031.94
2023-01-09T19:31:31.036Z,99062.03
2023-01-09T19:33:58.752Z,99101.66
2023-01-09T19:36:25.816Z,99086.63
2023-01-09T19:38:57.410Z,99105.75
2023-01-09T19:41:24.330Z,99111.88
2023-01-09T19:43:51.355Z,99126.78
2023-01-09T19:46:20.560Z,99114.34
2023-01-09T19:48:47.919Z,99126.44
2023-01-09T19:51:16.310Z,99129.91
2023-01-09T19:53:43.195Z,99112.34
2023-01-09T19:56:21.366Z,99132.28
2023-01-09T19:58:53.833Z,99137.69
2023-01-09T20:01:26.643Z,99133.56
2023-01-09T20:03:55.002Z,99118.38
2023-01-09T20:06:24.769Z,99150.00
2023-01-09T20:08:57.012Z,99146.75
2023-01-09T20:11:26.524Z,99129.47
2023-01-09T20:13:55.514Z,99129.53
2023-01-09T20:16:28.331Z,99154.91
2023-01-09T20:18:57.831Z,99170.34
2023-01-09T20:21:26.925Z,99155.19
2023-01-09T20:23:56.138Z,99161.25
2023-01-09T20:26:23.579Z,99164.56
2023-01-09T20:28:50.343Z,99147.25
2023-01-09T20:31:19.223Z,99145.47
2023-01-09T20:33:50.936Z,99159.25
2023-01-09T20:36:18.945Z,99151.59
2023-01-09T20:38:45.708Z,99165.22
2023-01-09T20:41:24.104Z,99175.03
2023-01-09T20:43:55.307Z,99166.13
2023-01-09T20:46:24.232Z,99166.84
2023-01-09T20:48:51.744Z,99196.41
2023-01-09T20:51:18.668Z,99180.13
2023-01-09T20:53:55.680Z,99202.50
2023-01-09T20:56:24.220Z,99200.66
2023-01-09T20:58:51.366Z,99205.88
2023-01-09T21:01:18.617Z,99222.06
2023-01-09T21:03:45.654Z,99217.88
2023-01-09T21:06:14.607Z,99228.50
2023-01-09T21:08:43.022Z,99244.06
2023-01-09T21:11:11.124Z,99251.59
2023-01-09T21:13:38.476Z,99217.63
2023-01-09T21:16:11.328Z,99260.81
2023-01-09T21:18:38.706Z,99247.31
2023-01-09T21:21:16.478Z,99270.31
2023-01-09T21:23:53.645Z,99292.69
2023-01-09T21:26:24.440Z,99305.88
2023-01-09T21:28:55.155Z,99317.09
2023-01-09T21:31:34.984Z,99311.00
2023-01-09T21:34:04.670Z,99317.69
2023-01-09T21:36:31.858Z,99316.91
2023-01-09T21:38:59.621Z,99310.63
2023-01-09T21:41:44.862Z,99314.00
2023-01-09T21:44:31.604Z,99331.19
2023-01-09T21:47:01.607Z,99331.53
2023-01-09T21:49:31.469Z,99337.38
2023-01-09T21:51:58.407Z,99363.31
2023-01-09T21:54:25.320Z,99356.16
2023-01-09T21:56:53.284Z,99358.78
2023-01-09T21:59:20.483Z,99344.81
2023-01-09T22:01:51.594Z,99359.59
2023-01-09T22:04:20.612Z,99365.03
2023-01-09T22:06:47.503Z,99327.09
2023-01-09T22:09:14.290Z,99351.66
2023-01-09T22:11:41.432Z,99367.22
2023-01-09T22:14:12.093Z,99354.06
2023-01-09T22:16:38.797Z,99347.13
2023-01-09T22:19:05.441Z,99349.31
2023-01-09T22:21:34.762Z,99342.25
2023-01-09T22:24:05.240Z,99370.94
2023-01-09T22:26:34.281Z,99371.91
2023-01-09T22:29:01.099Z,99371.91
2023-01-09T22:31:33.087Z,99376.22
2023-01-09T22:34:01.277Z,99385.81
2023-01-09T22:36:29.413Z,99384.88
2023-01-09T22:38:58.041Z,99381.34
2023-01-09T22:41:26.294Z,99358.53
2023-01-09T22:43:53.104Z,99390.16
2023-01-09T22:46:20.011Z,99390.03
2023-01-09T22:48:47.263Z,99407.81
2023-01-09T22:51:15.665Z,99404.50
2023-01-09T22:53:42.756Z,99414.34
2023-01-09T22:56:13.075Z,99422.47
2023-01-09T22:58:40.161Z,99427.59
2023-01-09T23:01:07.293Z,99426.94
2023-01-09T23:03:34.097Z,99427.66
2023-01-09T23:06:21.980Z,99430.41
2023-01-09T23:08:51.012Z,99427.22
2023-01-09T23:11:45.351Z,99435.59
2023-01-09T23:14:12.379Z,99437.28
2023-01-09T23:16:39.675Z,99436.47
2023-01-09T23:19:10.007Z,99427.03
2023-01-09T23:21:37.481Z,99447.44
2023-01-09T23:24:07.105Z,99432.03
2023-01-09T23:26:40.615Z,99439.75
2023-01-09T23:29:08.103Z,99439.03
2023-01-09T23:31:35.672Z,99434.00
2023-01-09T23:34:03.557Z,99478.53
2023-01-09T23:36:30.683Z,99452.53
2023-01-09T23:38:57.294Z,99468.31
2023-01-09T23:41:44.169Z,99458.47
2023-01-09T23:44:10.892Z,99484.09
2023-01-09T23:46:37.531Z,99482.41
2023-01-09T23:49:04.239Z,99487.63
2023-01-09T23:51:31.409Z,99478.38
2023-01-09T23:53:58.013Z,99454.41
2023-01-09T23:56:24.722Z,99474.69
2023-01-09T23:58:51.348Z,99465.34
